Forside
METAR-TAF:

METAR-TAF

Lufthavne :

Midtjyllands Lufthavn

Karup, Danmark

Breddekreds: 56-18N, længdekreds: 009-07E, højde: 52 m

Aktuelle vejr

Denne rapport blev lavet for 26 minutter siden, kl. 23:22 UTC
Vind 11 kt fra vestnordvest
Temperatur 6°C
Fugtighed 100%
Tryk 1028 hPa
Sigt: 4500 m
dis

METAR: EKKA 222322Z AUTO 30011KT 4500 BR OVC003/// 06/06 Q1028

Tid: 00:48 (23:48 UTC)

Vejrudsigter

Denne rapport blev lavet for 40 minutter siden, kl. 23:08 UTC
Foreløbig gælder fra 23 på 00 UTC til 23 på 24 UTC
Vind 12 kt fra vestnordvest
Sigt: 8000 m
Brudte skyer i en højde af 800 ft
Midlertidig
fra 23 på 00 UTC til 23 på 24 UTC
Sigt: 2500 m
Brudte skyer i en højde af 300 ft
let finregn, dis
ændring
fra 23 på 06 UTC til 23 på 08 UTC
Vind 6 kt fra vest

TAF: EKKA 222308Z 2300/2324 30012KT 8000 BKN008 TEMPO 2300/2324 2500 -DZ BR BKN003 BECMG 2306/2308 26006KT

Vejrobservationer og prognoser fra mere end 4000 lufthavne (METAR og TAF).

De gule og røde prikker repræsenterer de meteorologiske stationer.

Flyt musen over at se navnet på stationen.

Så klik over at se vejr observationer og prognoser.

At skifte det kort: Klik på de grønne knapper med et sort kors for at zoome ind; på den grønne knap med en bindestreg for at zoome ud; eller på de grønne pile for tilstødende kort.


METAR-TAF: